createdAt,value
2022-12-22T00:02:00.016Z,75.49
2022-12-22T00:04:46.331Z,75.71
2022-12-22T00:07:32.415Z,75.44
2022-12-22T00:10:18.625Z,75.33
2022-12-22T00:13:04.775Z,75.22
2022-12-22T00:15:53.927Z,75.41
2022-12-22T00:18:40.131Z,75.24
2022-12-22T00:21:30.106Z,75.76
2022-12-22T00:24:17.341Z,75.33
2022-12-22T00:27:04.490Z,74.79
2022-12-22T00:29:56.282Z,75.27
2022-12-22T00:32:51.383Z,75.29
2022-12-22T00:35:41.430Z,74.96
2022-12-22T00:38:38.840Z,75.18
2022-12-22T00:41:25.558Z,74.95
2022-12-22T00:44:11.750Z,75.10
2022-12-22T00:47:01.479Z,75.32
2022-12-22T00:49:49.947Z,75.17
2022-12-22T00:52:38.279Z,75.71
2022-12-22T00:55:36.183Z,76.47
2022-12-22T00:58:25.096Z,76.05
2022-12-22T01:01:11.198Z,76.12
2022-12-22T01:03:57.063Z,76.06
2022-12-22T01:06:47.487Z,76.10
2022-12-22T01:09:33.929Z,75.89
2022-12-22T01:12:19.966Z,75.21
2022-12-22T01:15:06.081Z,75.96
2022-12-22T01:17:52.246Z,75.77
2022-12-22T01:20:38.259Z,75.75
2022-12-22T01:23:29.340Z,75.61
2022-12-22T01:26:15.398Z,75.79
2022-12-22T01:29:01.296Z,75.87
2022-12-22T01:31:51.397Z,76.24
2022-12-22T01:34:37.429Z,76.22
2022-12-22T01:37:23.380Z,76.39
2022-12-22T01:40:09.816Z,75.79
2022-12-22T01:42:56.064Z,75.55
2022-12-22T01:45:44.007Z,75.67
2022-12-22T01:48:32.177Z,75.82
2022-12-22T01:51:21.855Z,75.93
2022-12-22T01:54:08.619Z,76.13
2022-12-22T01:56:54.872Z,76.33
2022-12-22T01:59:41.179Z,76.22
2022-12-22T02:02:28.201Z,76.33
2022-12-22T02:05:18.546Z,76.34
2022-12-22T02:08:17.903Z,77.21
2022-12-22T02:11:12.394Z,76.14
2022-12-22T02:14:17.046Z,77.06
2022-12-22T02:17:05.787Z,76.65
2022-12-22T02:19:54.741Z,77.07
2022-12-22T02:22:51.790Z,76.99
2022-12-22T02:25:45.115Z,76.40
2022-12-22T02:28:31.376Z,76.02
2022-12-22T02:31:17.542Z,76.37
2022-12-22T02:34:03.772Z,75.98
2022-12-22T02:37:21.826Z,76.23
2022-12-22T02:40:10.719Z,76.51
2022-12-22T02:43:07.633Z,76.10
2022-12-22T02:46:20.646Z,76.56
2022-12-22T02:49:39.713Z,76.39
2022-12-22T02:52:39.205Z,76.29
2022-12-22T02:55:26.721Z,76.10
2022-12-22T02:58:12.873Z,76.70
2022-12-22T03:00:59.019Z,76.57
2022-12-22T03:03:45.186Z,76.06
2022-12-22T03:06:31.248Z,75.88
2022-12-22T03:09:17.250Z,76.13
2022-12-22T03:12:03.349Z,76.78
2022-12-22T03:14:49.650Z,76.34
2022-12-22T03:17:35.837Z,76.28
2022-12-22T03:20:22.077Z,76.53
2022-12-22T03:23:08.163Z,76.62
2022-12-22T03:25:50.996Z,76.89
2022-12-22T03:28:18.996Z,77.19
2022-12-22T03:30:52.406Z,77.10
2022-12-22T03:33:19.960Z,76.67
2022-12-22T03:35:47.491Z,77.12
2022-12-22T03:38:15.022Z,76.89
2022-12-22T03:40:44.581Z,77.14
2022-12-22T03:43:32.478Z,76.48
2022-12-22T03:46:19.340Z,76.51
2022-12-22T03:49:05.902Z,76.61
2022-12-22T03:51:34.844Z,76.87
2022-12-22T03:54:02.286Z,76.66
2022-12-22T03:56:29.756Z,77.12
2022-12-22T03:58:57.346Z,76.51
2022-12-22T04:01:25.036Z,76.71
2022-12-22T04:03:52.555Z,76.64
2022-12-22T04:06:20.324Z,76.03
2022-12-22T04:08:47.792Z,76.11
2022-12-22T04:11:35.569Z,76.57
2022-12-22T04:14:05.509Z,76.70
2022-12-22T04:16:40.635Z,75.79
2022-12-22T04:19:10.011Z,75.48
2022-12-22T04:21:38.126Z,75.49
2022-12-22T04:24:06.131Z,75.77
2022-12-22T04:26:33.917Z,75.72
2022-12-22T04:29:01.488Z,76.26
2022-12-22T04:31:29.137Z,76.05
2022-12-22T04:33:56.735Z,76.11
2022-12-22T04:36:24.367Z,76.95
2022-12-22T04:38:51.923Z,76.91
2022-12-22T04:41:19.489Z,76.65
2022-12-22T04:43:49.433Z,76.63
2022-12-22T04:46:17.112Z,76.60
2022-12-22T04:48:44.728Z,76.03
2022-12-22T04:51:12.323Z,75.75
2022-12-22T04:53:39.765Z,75.66
2022-12-22T04:56:10.038Z,75.75
2022-12-22T04:58:37.638Z,75.99
2022-12-22T05:01:13.601Z,76.42
2022-12-22T05:03:41.384Z,76.94
2022-12-22T05:06:09.390Z,76.74
2022-12-22T05:08:37.398Z,76.49
2022-12-22T05:11:05.491Z,76.37
2022-12-22T05:13:33.361Z,76.09
2022-12-22T05:16:11.412Z,76.63
2022-12-22T05:18:40.420Z,76.24
2022-12-22T05:21:14.570Z,76.37
2022-12-22T05:23:42.470Z,76.21
2022-12-22T05:26:10.764Z,76.89
2022-12-22T05:28:38.281Z,76.03
2022-12-22T05:31:08.364Z,76.58
2022-12-22T05:33:36.849Z,76.71
2022-12-22T05:36:04.717Z,76.83
2022-12-22T05:38:32.275Z,76.16
2022-12-22T05:41:03.811Z,76.18
2022-12-22T05:43:33.231Z,76.20
2022-12-22T05:46:09.920Z,76.80
2022-12-22T05:48:39.605Z,76.19
2022-12-22T05:51:09.297Z,76.04
2022-12-22T05:53:37.977Z,76.68
2022-12-22T05:56:06.547Z,76.91
2022-12-22T05:58:35.236Z,76.85
2022-12-22T06:01:02.953Z,76.49
2022-12-22T06:03:30.927Z,76.38
2022-12-22T06:05:58.979Z,75.75
2022-12-22T06:08:27.534Z,76.11
2022-12-22T06:10:57.139Z,76.26
2022-12-22T06:13:25.997Z,76.56
2022-12-22T06:15:53.692Z,76.36
2022-12-22T06:18:21.589Z,76.61
2022-12-22T06:20:51.823Z,76.74
2022-12-22T06:23:19.778Z,76.41
2022-12-22T06:26:01.246Z,76.55
2022-12-22T06:28:29.230Z,76.31
2022-12-22T06:30:56.828Z,76.28
2022-12-22T06:33:24.551Z,76.39
2022-12-22T06:35:58.017Z,76.67
2022-12-22T06:38:27.384Z,76.47
2022-12-22T06:40:54.909Z,76.35
2022-12-22T06:43:22.487Z,76.16
2022-12-22T06:45:49.941Z,75.93
2022-12-22T06:48:17.557Z,75.87
2022-12-22T06:50:45.269Z,76.11
2022-12-22T06:53:12.930Z,76.15
2022-12-22T06:55:40.409Z,75.71
2022-12-22T06:58:08.248Z,76.25
2022-12-22T07:00:35.848Z,75.72
2022-12-22T07:03:03.560Z,75.86
2022-12-22T07:05:32.122Z,75.63
2022-12-22T07:08:05.736Z,75.93
2022-12-22T07:10:54.643Z,75.57
2022-12-22T07:13:24.210Z,74.92
2022-12-22T07:15:59.584Z,75.13
2022-12-22T07:18:33.444Z,75.47
2022-12-22T07:21:02.865Z,75.21
2022-12-22T07:23:30.888Z,75.11
2022-12-22T07:25:59.109Z,75.12
2022-12-22T07:28:26.988Z,74.95
2022-12-22T07:30:55.169Z,74.56
2022-12-22T07:33:22.726Z,75.00
2022-12-22T07:36:01.387Z,74.94
2022-12-22T07:38:28.887Z,74.58
2022-12-22T07:41:04.609Z,74.95
2022-12-22T07:43:33.090Z,74.77
2022-12-22T07:46:00.688Z,74.29
2022-12-22T07:48:47.283Z,74.10
2022-12-22T07:51:14.883Z,74.24
2022-12-22T07:53:44.524Z,73.88
2022-12-22T07:56:12.258Z,73.82
2022-12-22T07:58:39.796Z,73.92
2022-12-22T08:01:07.371Z,74.08
2022-12-22T08:03:34.868Z,74.03
2022-12-22T08:06:04.962Z,73.98
2022-12-22T08:08:33.881Z,73.94
2022-12-22T08:11:05.611Z,73.84
2022-12-22T08:13:33.170Z,73.34
2022-12-22T08:16:08.138Z,73.97
2022-12-22T08:18:36.784Z,73.69
2022-12-22T08:21:07.742Z,73.78
2022-12-22T08:23:36.078Z,73.39
2022-12-22T08:26:14.868Z,73.47
2022-12-22T08:28:57.977Z,73.86
2022-12-22T08:31:27.608Z,73.44
2022-12-22T08:33:57.214Z,73.26
2022-12-22T08:36:25.063Z,73.35
2022-12-22T08:38:52.889Z,73.33
2022-12-22T08:41:40.359Z,73.86
2022-12-22T08:44:08.016Z,73.71
2022-12-22T08:46:35.516Z,73.42
2022-12-22T08:49:03.078Z,73.78
2022-12-22T08:51:30.644Z,73.39
2022-12-22T08:54:06.489Z,73.36
2022-12-22T08:56:35.489Z,73.68
2022-12-22T08:59:05.542Z,73.58
2022-12-22T09:01:34.512Z,73.31
2022-12-22T09:04:02.969Z,73.18
2022-12-22T09:06:36.530Z,73.20
2022-12-22T09:09:10.325Z,72.93
2022-12-22T09:11:38.585Z,73.18
2022-12-22T09:14:07.400Z,72.95
2022-12-22T09:16:35.783Z,72.84
2022-12-22T09:19:03.840Z,72.79
2022-12-22T09:21:31.442Z,72.28
2022-12-22T09:23:59.567Z,72.80
2022-12-22T09:26:29.137Z,72.11
2022-12-22T09:28:57.857Z,72.76
2022-12-22T09:31:26.426Z,72.72
2022-12-22T09:33:54.223Z,72.38
2022-12-22T09:36:24.657Z,72.23
2022-12-22T09:38:52.775Z,71.95
2022-12-22T09:41:46.348Z,72.22
2022-12-22T09:44:22.594Z,72.14
2022-12-22T09:46:50.988Z,72.27
2022-12-22T09:49:20.070Z,72.37
2022-12-22T09:52:09.750Z,72.33
2022-12-22T09:54:37.248Z,72.23
2022-12-22T09:57:11.527Z,72.29
2022-12-22T09:59:39.042Z,72.31
2022-12-22T10:02:57.687Z,72.31
2022-12-22T10:05:38.691Z,72.58
2022-12-22T10:08:15.555Z,72.55
2022-12-22T10:10:43.186Z,72.75
2022-12-22T10:13:20.913Z,72.85
2022-12-22T10:15:49.284Z,72.82
2022-12-22T10:18:20.625Z,72.65
2022-12-22T10:21:09.575Z,73.17
2022-12-22T10:23:44.584Z,73.03
2022-12-22T10:26:28.725Z,73.27
2022-12-22T10:29:06.102Z,73.21
2022-12-22T10:31:37.107Z,73.51
2022-12-22T10:34:17.140Z,73.64
2022-12-22T10:36:49.865Z,73.50
2022-12-22T10:39:33.561Z,73.65
2022-12-22T10:42:08.940Z,73.03
2022-12-22T10:44:38.674Z,72.93
2022-12-22T10:47:20.518Z,73.48
2022-12-22T10:52:29.574Z,73.32
2022-12-22T10:55:21.082Z,73.38
2022-12-22T10:57:49.921Z,73.03
2022-12-22T11:00:25.356Z,73.09
2022-12-22T11:02:58.019Z,73.54
2022-12-22T11:05:26.032Z,73.19
2022-12-22T11:07:54.187Z,73.68
2022-12-22T11:10:35.956Z,73.48
2022-12-22T11:13:42.311Z,73.53
2022-12-22T11:16:25.333Z,73.70
2022-12-22T11:18:55.893Z,73.47
2022-12-22T11:21:32.171Z,73.49
2022-12-22T11:24:24.191Z,73.77
2022-12-22T11:27:14.821Z,72.83
2022-12-22T11:30:00.374Z,73.71
2022-12-22T11:32:48.877Z,73.49
2022-12-22T11:35:42.480Z,73.85
2022-12-22T11:38:26.488Z,73.10
2022-12-22T11:41:32.200Z,73.43
2022-12-22T11:44:37.466Z,73.34
2022-12-22T11:47:29.180Z,73.31
2022-12-22T11:51:01.472Z,73.50
2022-12-22T11:53:17.014Z,73.89
2022-12-22T11:56:06.891Z,73.77
2022-12-22T11:58:46.157Z,73.34
2022-12-22T12:01:41.149Z,73.78
2022-12-22T12:04:16.568Z,73.63
2022-12-22T12:07:05.823Z,74.13
2022-12-22T12:10:11.945Z,73.88
2022-12-22T12:13:06.464Z,73.41
2022-12-22T12:15:40.404Z,73.61
2022-12-22T12:18:26.999Z,74.27
2022-12-22T12:21:12.679Z,74.09
2022-12-22T12:23:42.746Z,73.68
2022-12-22T12:26:18.775Z,73.90
2022-12-22T12:28:58.011Z,73.99
2022-12-22T12:31:33.509Z,74.18
2022-12-22T12:34:03.407Z,73.75
2022-12-22T12:37:26.781Z,74.17
2022-12-22T12:40:15.830Z,73.88
2022-12-22T12:42:46.556Z,73.99
2022-12-22T12:45:42.842Z,74.00
2022-12-22T12:48:37.049Z,74.01
2022-12-22T12:51:43.046Z,74.10
2022-12-22T12:54:38.868Z,73.83
2022-12-22T12:57:47.881Z,73.64
2022-12-22T13:00:35.711Z,73.57
2022-12-22T13:03:19.921Z,73.49
2022-12-22T13:06:00.933Z,73.53
2022-12-22T13:08:30.309Z,73.52
2022-12-22T13:10:57.712Z,73.57
2022-12-22T13:13:25.177Z,73.21
2022-12-22T13:16:04.661Z,73.53
2022-12-22T13:18:35.009Z,73.45
2022-12-22T13:24:24.232Z,73.42
2022-12-22T13:26:57.162Z,73.36
2022-12-22T13:29:41.188Z,73.48
2022-12-22T13:32:25.779Z,73.74
2022-12-22T13:37:45.523Z,73.67
2022-12-22T13:40:23.278Z,73.81
2022-12-22T13:42:53.023Z,73.63
2022-12-22T13:45:43.327Z,73.53
2022-12-22T13:48:21.317Z,73.67
2022-12-22T13:50:52.628Z,73.63
2022-12-22T13:54:08.520Z,73.51
2022-12-22T13:56:38.527Z,73.34
2022-12-22T13:59:24.734Z,73.41
2022-12-22T14:02:15.642Z,73.31
2022-12-22T14:05:03.708Z,73.10
2022-12-22T14:07:31.723Z,73.29
2022-12-22T14:09:59.331Z,73.51
2022-12-22T14:12:30.647Z,73.54
2022-12-22T14:15:01.371Z,73.35
2022-12-22T14:17:33.842Z,73.56
2022-12-22T14:20:16.228Z,73.79
2022-12-22T14:22:53.163Z,73.82
2022-12-22T14:25:32.383Z,73.13
2022-12-22T14:28:00.972Z,72.90
2022-12-22T14:30:38.552Z,73.17
2022-12-22T14:33:28.081Z,73.22
2022-12-22T14:36:20.798Z,73.23
2022-12-22T14:39:02.520Z,73.03
2022-12-22T14:41:46.986Z,72.79
2022-12-22T14:44:15.930Z,72.69
2022-12-22T14:46:45.223Z,72.71
2022-12-22T14:49:16.723Z,72.93
2022-12-22T14:52:01.367Z,73.03
2022-12-22T14:54:29.419Z,72.47
2022-12-22T14:57:08.503Z,72.60
2022-12-22T14:59:40.765Z,72.68
2022-12-22T15:02:26.479Z,72.58
2022-12-22T15:05:08.474Z,72.98
2022-12-22T15:08:05.348Z,72.72
2022-12-22T15:10:39.967Z,72.91
2022-12-22T15:13:16.137Z,72.74
2022-12-22T15:15:44.243Z,72.59
2022-12-22T15:18:14.725Z,72.73
2022-12-22T15:20:42.394Z,73.09
2022-12-22T15:23:17.381Z,72.90
2022-12-22T15:25:45.837Z,73.11
2022-12-22T15:28:14.002Z,73.02
2022-12-22T15:30:42.270Z,72.95
2022-12-22T15:33:18.746Z,73.08
2022-12-22T15:35:46.829Z,72.99
2022-12-22T15:38:16.986Z,72.79
2022-12-22T15:40:44.715Z,72.99
2022-12-22T15:43:36.768Z,72.96
2022-12-22T15:46:01.602Z,72.99
2022-12-22T15:48:33.191Z,73.08
2022-12-22T15:51:06.005Z,73.01
2022-12-22T15:53:34.649Z,73.10
2022-12-22T15:56:05.036Z,72.61
2022-12-22T15:58:36.443Z,72.67
2022-12-22T16:01:04.256Z,72.75
2022-12-22T16:03:31.883Z,72.56
2022-12-22T16:06:00.735Z,72.60
2022-12-22T16:08:33.283Z,72.57
2022-12-22T16:11:00.853Z,72.88
2022-12-22T16:13:29.331Z,72.73
2022-12-22T16:15:58.574Z,72.36
2022-12-22T16:18:26.337Z,72.60
2022-12-22T16:20:54.800Z,72.80
2022-12-22T16:23:25.941Z,72.62
2022-12-22T16:26:00.988Z,71.94
2022-12-22T16:28:29.821Z,72.20
2022-12-22T16:30:57.621Z,72.30
2022-12-22T16:33:25.198Z,72.05
2022-12-22T16:35:52.697Z,71.98
2022-12-22T16:38:20.161Z,71.75
2022-12-22T16:40:51.645Z,72.05
2022-12-22T16:43:51.267Z,71.91
2022-12-22T16:46:29.343Z,71.62
2022-12-22T16:49:01.222Z,71.75
2022-12-22T16:51:36.932Z,71.94
2022-12-22T16:54:04.716Z,71.66
2022-12-22T16:56:32.969Z,71.75
2022-12-22T16:59:03.058Z,71.96
2022-12-22T17:01:49.453Z,71.72
2022-12-22T17:04:26.034Z,71.56
2022-12-22T17:06:55.315Z,71.90
2022-12-22T17:09:31.226Z,71.76
2022-12-22T17:12:01.100Z,71.85
2022-12-22T17:14:39.481Z,72.03
2022-12-22T17:17:30.831Z,71.93
2022-12-22T17:19:59.567Z,71.67
2022-12-22T17:22:30.171Z,71.40
2022-12-22T17:25:02.376Z,71.54
2022-12-22T17:27:32.676Z,71.52
2022-12-22T17:30:03.689Z,71.72
2022-12-22T17:32:31.970Z,71.59
2022-12-22T17:34:59.467Z,71.41
2022-12-22T17:37:27.105Z,71.50
2022-12-22T17:39:59.236Z,71.40
2022-12-22T17:42:26.878Z,71.14
2022-12-22T17:44:54.414Z,71.32
2022-12-22T17:47:30.446Z,71.49
2022-12-22T17:49:59.961Z,71.41
2022-12-22T17:52:28.314Z,71.22
2022-12-22T17:54:56.003Z,71.59
2022-12-22T17:57:33.052Z,71.28
2022-12-22T18:00:00.919Z,71.25
2022-12-22T18:02:29.789Z,71.48
2022-12-22T18:04:57.552Z,71.60
2022-12-22T18:07:25.406Z,71.54
2022-12-22T18:09:59.144Z,72.17
2022-12-22T18:12:26.869Z,71.84
2022-12-22T18:14:54.506Z,71.40
2022-12-22T18:17:34.878Z,71.97
2022-12-22T18:20:05.689Z,72.03
2022-12-22T18:22:33.203Z,72.19
2022-12-22T18:25:00.850Z,72.32
2022-12-22T18:27:28.667Z,72.54
2022-12-22T18:29:56.117Z,72.32
2022-12-22T18:32:27.788Z,72.47
2022-12-22T18:34:55.543Z,72.55
2022-12-22T18:37:23.464Z,72.86
2022-12-22T18:39:50.973Z,72.75
2022-12-22T18:42:22.013Z,72.68
2022-12-22T18:44:51.040Z,73.03
2022-12-22T18:47:19.248Z,72.82
2022-12-22T18:49:47.080Z,73.42
2022-12-22T18:52:20.489Z,73.48
2022-12-22T18:54:48.993Z,72.84
2022-12-22T18:57:19.596Z,73.04
2022-12-22T18:59:48.342Z,72.36
2022-12-22T19:02:30.801Z,72.60
2022-12-22T19:04:59.596Z,72.30
2022-12-22T19:07:27.475Z,72.60
2022-12-22T19:09:54.937Z,72.70
2022-12-22T19:12:23.427Z,73.18
2022-12-22T19:14:54.315Z,72.89
2022-12-22T19:17:25.508Z,73.34
2022-12-22T19:19:53.093Z,73.40
2022-12-22T19:22:20.787Z,73.51
2022-12-22T19:24:49.162Z,73.98
2022-12-22T19:27:26.129Z,74.00
2022-12-22T19:30:03.072Z,73.88
2022-12-22T19:32:41.298Z,73.73
2022-12-22T19:35:20.766Z,74.14
2022-12-22T19:37:50.124Z,73.80
2022-12-22T19:40:19.938Z,73.38
2022-12-22T19:42:50.160Z,73.41
2022-12-22T19:45:21.929Z,73.01
2022-12-22T19:47:50.800Z,72.90
2022-12-22T19:50:23.457Z,72.80
2022-12-22T19:52:52.228Z,72.94
2022-12-22T19:55:21.182Z,72.96
2022-12-22T19:57:51.980Z,72.59
2022-12-22T20:00:19.910Z,73.13
2022-12-22T20:02:49.479Z,73.32
2022-12-22T20:05:22.867Z,73.97
2022-12-22T20:07:56.839Z,74.08
2022-12-22T20:10:26.205Z,73.66
2022-12-22T20:12:57.111Z,73.74
2022-12-22T20:15:31.626Z,73.61
2022-12-22T20:17:59.764Z,73.83
2022-12-22T20:20:33.346Z,73.89
2022-12-22T20:23:11.388Z,74.08
2022-12-22T20:25:42.091Z,73.90
2022-12-22T20:28:31.388Z,74.02
2022-12-22T20:31:10.712Z,73.69
2022-12-22T20:33:38.487Z,73.98
2022-12-22T20:36:32.357Z,74.18
2022-12-22T20:39:02.183Z,74.08
2022-12-22T20:41:29.708Z,73.90
2022-12-22T20:43:57.264Z,73.76
2022-12-22T20:46:27.261Z,74.19
2022-12-22T20:49:04.629Z,74.12
2022-12-22T20:51:33.796Z,74.00
2022-12-22T20:54:01.645Z,73.85
2022-12-22T20:56:32.773Z,74.40
2022-12-22T20:59:12.384Z,74.11
2022-12-22T21:01:40.029Z,74.18
2022-12-22T21:04:07.594Z,74.10
2022-12-22T21:06:38.880Z,73.87
2022-12-22T21:09:06.488Z,74.43
2022-12-22T21:11:35.000Z,74.66
2022-12-22T21:14:02.575Z,74.43
2022-12-22T21:16:31.710Z,74.05
2022-12-22T21:18:59.268Z,73.90
2022-12-22T21:21:26.803Z,73.92
2022-12-22T21:23:54.351Z,74.30
2022-12-22T21:26:47.525Z,73.88
2022-12-22T21:29:21.949Z,74.04
2022-12-22T21:31:49.655Z,73.90
2022-12-22T21:34:17.213Z,74.32
2022-12-22T21:36:47.529Z,74.67
2022-12-22T21:39:20.993Z,74.36
2022-12-22T21:42:00.365Z,74.60
2022-12-22T21:44:29.248Z,74.25
2022-12-22T21:46:57.391Z,74.18
2022-12-22T21:49:28.700Z,73.80
2022-12-22T21:51:56.363Z,73.49
2022-12-22T21:54:25.430Z,73.60
2022-12-22T21:56:54.073Z,73.87
2022-12-22T21:59:22.183Z,73.57
2022-12-22T22:01:53.010Z,73.06
2022-12-22T22:04:21.139Z,73.23
2022-12-22T22:06:49.000Z,73.72
2022-12-22T22:09:16.670Z,73.54
2022-12-22T22:12:02.754Z,73.65
2022-12-22T22:14:30.322Z,73.60
2022-12-22T22:16:57.822Z,73.88
2022-12-22T22:19:25.355Z,74.29
2022-12-22T22:21:52.921Z,73.98
2022-12-22T22:24:20.481Z,74.03
2022-12-22T22:26:49.290Z,74.12
2022-12-22T22:29:16.903Z,74.03
2022-12-22T22:31:44.736Z,74.51
2022-12-22T22:34:12.304Z,74.91
2022-12-22T22:36:39.845Z,74.59
2022-12-22T22:39:07.416Z,74.74
2022-12-22T22:41:41.014Z,75.11
2022-12-22T22:44:11.050Z,75.07
2022-12-22T22:46:38.607Z,74.55
2022-12-22T22:49:06.540Z,74.57
2022-12-22T22:51:34.225Z,74.19
2022-12-22T22:54:01.819Z,74.37
2022-12-22T22:56:29.371Z,74.68
2022-12-22T22:58:59.101Z,74.14
2022-12-22T23:01:26.794Z,74.78
2022-12-22T23:03:54.378Z,74.76
2022-12-22T23:06:22.146Z,74.75
2022-12-22T23:08:49.927Z,74.05
2022-12-22T23:11:17.872Z,73.97
2022-12-22T23:13:45.640Z,74.44
2022-12-22T23:16:13.336Z,74.73
2022-12-22T23:18:43.039Z,74.63
2022-12-22T23:21:11.464Z,74.97
2022-12-22T23:23:39.082Z,74.83
2022-12-22T23:26:06.777Z,74.32
2022-12-22T23:28:34.364Z,74.43
2022-12-22T23:31:02.249Z,74.44
2022-12-22T23:33:32.269Z,74.47
2022-12-22T23:35:59.880Z,74.46
2022-12-22T23:38:27.434Z,74.12
2022-12-22T23:41:10.989Z,74.01
2022-12-22T23:43:40.931Z,74.08
2022-12-22T23:46:16.572Z,74.04
2022-12-22T23:48:44.326Z,74.11
2022-12-22T23:51:12.250Z,74.27
2022-12-22T23:53:39.860Z,74.55
2022-12-22T23:56:07.509Z,74.11
2022-12-22T23:58:35.225Z,74.19
